createdAt,value
2018-07-15T00:00:39.584Z,18.55
2018-07-15T00:03:09.031Z,18.47
2018-07-15T00:05:38.519Z,18.46
2018-07-15T00:08:07.258Z,18.43
2018-07-15T00:10:42.585Z,18.41
2018-07-15T00:13:11.184Z,18.38
2018-07-15T00:15:39.812Z,18.21
2018-07-15T00:18:10.899Z,18.15
2018-07-15T00:20:39.495Z,18.14
2018-07-15T00:23:11.939Z,18.11
2018-07-15T00:25:40.549Z,18.11
2018-07-15T00:28:10.957Z,18.09
2018-07-15T00:30:39.567Z,18.08
2018-07-15T00:33:08.784Z,18.04
2018-07-15T00:35:37.440Z,18.04
2018-07-15T00:38:06.866Z,18.05
2018-07-15T00:40:35.368Z,18.04
2018-07-15T00:43:04.101Z,18.01
2018-07-15T00:45:33.310Z,17.96
2018-07-15T00:48:02.669Z,17.94
2018-07-15T00:50:33.004Z,17.92
2018-07-15T00:53:01.881Z,17.92
2018-07-15T00:55:30.578Z,17.92
2018-07-15T00:57:59.066Z,17.91
2018-07-15T01:00:32.865Z,17.88
2018-07-15T01:03:01.707Z,17.88
2018-07-15T01:05:30.230Z,17.84
2018-07-15T01:07:58.803Z,17.79
2018-07-15T01:10:27.486Z,17.74
2018-07-15T01:12:55.995Z,17.69
2018-07-15T01:15:24.672Z,17.64
2018-07-15T01:17:53.207Z,17.52
2018-07-15T01:20:23.016Z,17.50
2018-07-15T01:22:51.712Z,17.50
2018-07-15T01:25:20.596Z,17.48
2018-07-15T01:27:50.240Z,17.45
2018-07-15T01:30:18.748Z,17.40
2018-07-15T01:32:47.941Z,17.39
2018-07-15T01:35:16.527Z,17.35
2018-07-15T01:37:45.796Z,17.33
2018-07-15T01:40:14.357Z,17.34
2018-07-15T01:42:42.994Z,17.34
2018-07-15T01:45:12.240Z,17.33
2018-07-15T01:47:40.742Z,17.32
2018-07-15T01:50:09.493Z,17.34
2018-07-15T01:52:38.638Z,17.34
2018-07-15T01:55:07.189Z,17.29
2018-07-15T01:57:35.694Z,17.26
2018-07-15T02:00:04.595Z,17.21
2018-07-15T02:02:33.232Z,17.18
2018-07-15T02:05:01.728Z,17.15
2018-07-15T02:07:30.206Z,17.10
2018-07-15T02:09:59.090Z,17.08
2018-07-15T02:12:27.696Z,17.05
2018-07-15T02:14:56.196Z,17.00
2018-07-15T02:17:24.727Z,16.99
2018-07-15T02:19:53.393Z,16.89
2018-07-15T02:22:21.884Z,16.85
2018-07-15T02:24:50.596Z,16.83
2018-07-15T02:27:19.188Z,16.85
2018-07-15T02:29:47.732Z,16.80
2018-07-15T02:32:16.843Z,16.79
2018-07-15T02:34:46.435Z,16.73
2018-07-15T02:37:14.986Z,16.69
2018-07-15T02:39:43.496Z,16.61
2018-07-15T02:42:12.289Z,16.52
2018-07-15T02:44:40.847Z,16.43
2018-07-15T02:47:09.341Z,16.38
2018-07-15T02:49:38.810Z,16.33
2018-07-15T02:52:07.452Z,16.31
2018-07-15T02:54:36.465Z,16.28
2018-07-15T02:57:05.569Z,16.27
2018-07-15T02:59:34.129Z,16.23
2018-07-15T03:02:03.376Z,16.22
2018-07-15T03:04:32.950Z,16.18
2018-07-15T03:07:02.637Z,16.19
2018-07-15T03:09:31.714Z,16.20
2018-07-15T03:12:00.467Z,16.19
2018-07-15T03:14:28.951Z,16.20
2018-07-15T03:16:58.113Z,16.21
2018-07-15T03:19:27.147Z,16.22
2018-07-15T03:21:56.109Z,16.22
2018-07-15T03:24:24.893Z,16.23
2018-07-15T03:26:53.582Z,16.22
2018-07-15T03:29:22.106Z,16.25
2018-07-15T03:31:50.901Z,16.22
2018-07-15T03:34:20.520Z,16.24
2018-07-15T03:36:49.491Z,16.27
2018-07-15T03:39:19.020Z,16.30
2018-07-15T03:41:47.574Z,16.31
2018-07-15T03:44:16.880Z,16.30
2018-07-15T03:46:50.610Z,16.30
2018-07-15T03:49:19.161Z,16.33
2018-07-15T03:51:48.188Z,16.32
2018-07-15T03:54:17.363Z,16.27
2018-07-15T03:56:46.981Z,16.23
2018-07-15T03:59:17.593Z,16.20
2018-07-15T04:01:46.698Z,16.20
2018-07-15T04:04:15.895Z,16.20
2018-07-15T04:06:45.210Z,16.21
2018-07-15T04:09:15.136Z,16.21
2018-07-15T04:11:44.155Z,16.19
2018-07-15T04:14:13.425Z,16.20
2018-07-15T04:16:48.964Z,16.20
2018-07-15T04:19:18.649Z,16.19
2018-07-15T04:21:47.290Z,16.15
2018-07-15T04:24:17.051Z,16.09
2018-07-15T04:26:46.160Z,16.13
2018-07-15T04:29:14.631Z,16.24
2018-07-15T04:31:43.170Z,16.22
2018-07-15T04:34:11.716Z,16.28
2018-07-15T04:36:40.543Z,16.33
2018-07-15T04:39:10.033Z,16.32
2018-07-15T04:41:38.568Z,16.32
2018-07-15T04:44:07.666Z,16.22
2018-07-15T04:46:37.135Z,16.13
2018-07-15T04:49:05.715Z,16.08
2018-07-15T04:51:34.535Z,16.04
2018-07-15T04:54:07.324Z,16.08
2018-07-15T04:56:36.225Z,16.06
2018-07-15T04:59:06.546Z,16.09
2018-07-15T05:01:39.057Z,16.22
2018-07-15T05:04:07.528Z,16.30
2018-07-15T05:06:36.136Z,16.35
2018-07-15T05:09:06.223Z,16.41
2018-07-15T05:11:35.724Z,16.44
2018-07-15T05:14:05.688Z,16.36
2018-07-15T05:16:34.356Z,16.27
2018-07-15T05:19:03.314Z,16.19
2018-07-15T05:21:32.116Z,16.27
2018-07-15T05:24:02.526Z,16.27
2018-07-15T05:26:32.578Z,16.33
2018-07-15T05:29:01.209Z,16.36
2018-07-15T05:31:29.748Z,16.46
2018-07-15T05:33:58.379Z,16.56
2018-07-15T05:36:27.217Z,16.56
2018-07-15T05:38:55.792Z,16.38
2018-07-15T05:41:27.305Z,16.38
2018-07-15T05:43:56.292Z,16.29
2018-07-15T05:46:25.124Z,16.34
2018-07-15T05:48:54.013Z,16.47
2018-07-15T05:51:23.853Z,16.57
2018-07-15T05:53:52.705Z,16.65
2018-07-15T05:56:21.525Z,16.71
2018-07-15T05:58:51.184Z,16.80
2018-07-15T06:01:20.149Z,16.85
2018-07-15T06:03:49.021Z,16.80
2018-07-15T06:06:17.494Z,16.85
2018-07-15T06:08:46.066Z,16.82
2018-07-15T06:11:14.833Z,16.88
2018-07-15T06:13:44.677Z,16.81
2018-07-15T06:16:15.644Z,16.82
2018-07-15T06:18:44.878Z,16.96
2018-07-15T06:21:14.517Z,17.11
2018-07-15T06:23:43.707Z,17.21
2018-07-15T06:26:13.237Z,17.30
2018-07-15T06:28:42.510Z,17.35
2018-07-15T06:31:11.756Z,17.42
2018-07-15T06:33:40.308Z,17.49
2018-07-15T06:36:09.193Z,17.57
2018-07-15T06:38:40.017Z,17.65
2018-07-15T06:41:08.676Z,17.57
2018-07-15T06:43:38.029Z,17.48
2018-07-15T06:46:07.204Z,17.51
2018-07-15T06:48:35.819Z,17.59
2018-07-15T06:51:04.395Z,17.65
2018-07-15T06:53:33.704Z,17.73
2018-07-15T06:56:04.214Z,17.72
2018-07-15T06:58:32.757Z,17.79
2018-07-15T07:01:01.374Z,17.74
2018-07-15T07:03:29.775Z,17.77
2018-07-15T07:05:58.657Z,17.85
2018-07-15T07:08:29.069Z,17.88
2018-07-15T07:10:58.532Z,17.90
2018-07-15T07:13:27.551Z,17.93
2018-07-15T07:15:57.093Z,17.97
2018-07-15T07:18:26.334Z,18.00
2018-07-15T07:20:56.180Z,18.08
2018-07-15T07:23:25.024Z,18.13
2018-07-15T07:25:54.030Z,18.24
2018-07-15T07:28:23.382Z,18.32
2018-07-15T07:30:52.963Z,18.38
2018-07-15T07:33:22.037Z,18.48
2018-07-15T07:35:51.539Z,18.56
2018-07-15T07:38:20.782Z,18.64
2018-07-15T07:40:50.218Z,18.66
2018-07-15T07:43:20.151Z,18.62
2018-07-15T07:45:49.493Z,18.62
2018-07-15T07:48:18.356Z,18.69
2018-07-15T07:50:48.372Z,18.79
2018-07-15T07:53:17.908Z,18.88
2018-07-15T07:55:47.349Z,18.96
2018-07-15T07:58:16.947Z,19.06
2018-07-15T08:00:45.560Z,19.08
2018-07-15T08:03:14.393Z,19.08
2018-07-15T08:05:43.357Z,19.16
2018-07-15T08:08:12.229Z,19.12
2018-07-15T08:10:41.229Z,19.16
2018-07-15T08:13:11.815Z,19.18
2018-07-15T08:15:40.776Z,19.28
2018-07-15T08:18:10.754Z,19.35
2018-07-15T08:20:40.307Z,19.47
2018-07-15T08:23:10.401Z,19.60
2018-07-15T08:25:39.284Z,19.69
2018-07-15T08:28:08.662Z,19.78
2018-07-15T08:30:48.800Z,19.85
2018-07-15T08:33:17.550Z,19.87
2018-07-15T08:35:46.948Z,19.87
2018-07-15T08:38:15.591Z,19.92
2018-07-15T08:40:44.950Z,19.99
2018-07-15T08:43:13.435Z,20.09
2018-07-15T08:45:42.593Z,20.17
2018-07-15T08:48:11.284Z,20.24
2018-07-15T08:50:42.204Z,20.29
2018-07-15T08:53:11.497Z,20.38
2018-07-15T08:55:40.867Z,20.40
2018-07-15T08:58:09.531Z,20.39
2018-07-15T09:00:38.046Z,20.38
2018-07-15T09:03:07.297Z,20.39
2018-07-15T09:05:35.949Z,20.42
2018-07-15T09:08:05.495Z,20.45
2018-07-15T09:10:34.970Z,20.45
2018-07-15T09:13:04.617Z,20.49
2018-07-15T09:15:33.153Z,20.55
2018-07-15T09:18:01.848Z,20.60
2018-07-15T09:20:30.473Z,20.68
2018-07-15T09:22:59.111Z,20.73
2018-07-15T09:25:27.784Z,20.81
2018-07-15T09:27:56.443Z,20.89
2018-07-15T09:30:27.111Z,20.89
2018-07-15T09:32:55.824Z,20.83
2018-07-15T09:35:24.682Z,20.89
2018-07-15T09:37:53.546Z,21.02
2018-07-15T09:40:22.196Z,21.15
2018-07-15T09:42:50.906Z,21.21
2018-07-15T09:45:19.727Z,21.28
2018-07-15T09:47:48.364Z,21.34
2018-07-15T09:50:17.119Z,21.48
2018-07-15T09:52:46.496Z,21.61
2018-07-15T09:55:15.095Z,21.74
2018-07-15T09:57:43.712Z,21.82
2018-07-15T10:00:18.136Z,21.78
2018-07-15T10:02:46.798Z,21.84
2018-07-15T10:05:16.677Z,21.86
2018-07-15T10:07:45.537Z,21.97
2018-07-15T10:10:14.847Z,22.10
2018-07-15T10:12:45.570Z,22.22
2018-07-15T10:15:16.275Z,22.33
2018-07-15T10:17:44.746Z,22.39
2018-07-15T10:20:14.971Z,22.37
2018-07-15T10:22:43.834Z,22.47
2018-07-15T10:25:12.732Z,22.53
2018-07-15T10:27:41.577Z,22.62
2018-07-15T10:30:11.659Z,22.65
2018-07-15T10:32:40.467Z,22.43
2018-07-15T10:35:17.038Z,22.34
2018-07-15T10:37:45.996Z,22.26
2018-07-15T10:40:14.857Z,22.35
2018-07-15T10:42:43.508Z,22.44
2018-07-15T10:45:12.462Z,22.58
2018-07-15T10:47:41.270Z,22.63
2018-07-15T10:50:11.203Z,22.66
2018-07-15T10:52:40.344Z,22.81
2018-07-15T10:55:10.268Z,22.73
2018-07-15T10:57:38.832Z,22.83
2018-07-15T11:00:08.187Z,22.88
2018-07-15T11:02:37.591Z,22.82
2018-07-15T11:05:07.075Z,22.96
2018-07-15T11:07:35.818Z,23.12
2018-07-15T11:10:05.287Z,23.10
2018-07-15T11:12:34.055Z,23.22
2018-07-15T11:15:03.739Z,23.28
2018-07-15T11:17:32.818Z,23.30
2018-07-15T11:20:01.529Z,23.46
2018-07-15T11:22:30.280Z,23.55
2018-07-15T11:24:58.905Z,23.67
2018-07-15T11:27:27.591Z,23.79
2018-07-15T11:29:56.223Z,23.86
2018-07-15T11:32:24.736Z,24.01
2018-07-15T11:34:54.452Z,24.15
2018-07-15T11:37:23.638Z,24.21
2018-07-15T11:39:53.153Z,24.11
2018-07-15T11:42:21.835Z,23.88
2018-07-15T11:44:50.560Z,23.87
2018-07-15T11:47:19.222Z,23.92
2018-07-15T11:49:48.152Z,24.11
2018-07-15T11:52:16.657Z,24.33
2018-07-15T11:54:46.690Z,24.47
2018-07-15T11:57:16.496Z,24.64
2018-07-15T11:59:45.238Z,24.76
2018-07-15T12:02:14.855Z,24.85
2018-07-15T12:04:43.462Z,24.92
2018-07-15T12:07:12.509Z,24.89
2018-07-15T12:09:41.629Z,24.93
2018-07-15T12:12:10.388Z,24.82
2018-07-15T12:14:39.206Z,24.87
2018-07-15T12:17:07.969Z,24.94
2018-07-15T12:19:38.097Z,24.76
2018-07-15T12:22:07.862Z,24.91
2018-07-15T12:24:36.470Z,25.15
2018-07-15T12:27:07.309Z,25.18
2018-07-15T12:29:39.775Z,25.21
2018-07-15T12:32:08.866Z,25.28
2018-07-15T12:34:38.777Z,25.42
2018-07-15T12:37:07.364Z,25.56
2018-07-15T12:41:05.776Z,25.69
2018-07-15T12:43:34.350Z,25.77
2018-07-15T12:46:04.786Z,25.86
2018-07-15T12:48:33.631Z,26.00
2018-07-15T12:51:02.237Z,26.13
2018-07-15T12:53:32.267Z,26.28
2018-07-15T12:56:01.502Z,26.38
2018-07-15T12:58:30.303Z,26.31
2018-07-15T13:00:59.129Z,26.37
2018-07-15T13:03:28.556Z,26.40
2018-07-15T13:05:57.852Z,26.61
2018-07-15T13:08:27.645Z,26.75
2018-07-15T13:10:57.236Z,26.86
2018-07-15T13:13:26.194Z,27.03
2018-07-15T13:15:55.273Z,27.22
2018-07-15T13:18:24.171Z,27.33
2018-07-15T13:20:53.328Z,27.40
2018-07-15T13:23:23.210Z,27.47
2018-07-15T13:25:52.757Z,27.50
2018-07-15T13:28:22.847Z,27.47
2018-07-15T13:30:52.642Z,27.17
2018-07-15T13:33:22.378Z,26.94
2018-07-15T13:35:52.152Z,26.94
2018-07-15T13:38:21.945Z,27.17
2018-07-15T13:40:50.575Z,27.48
2018-07-15T13:43:19.665Z,27.77
2018-07-15T13:45:49.617Z,28.03
2018-07-15T13:48:18.310Z,28.19
2018-07-15T13:50:47.143Z,28.31
2018-07-15T13:53:15.775Z,28.08
2018-07-15T13:55:45.183Z,28.08
2018-07-15T13:58:13.769Z,28.22
2018-07-15T14:00:42.465Z,28.18
2018-07-15T14:03:11.126Z,27.88
2018-07-15T14:05:40.223Z,27.70
2018-07-15T14:08:09.576Z,27.84
2018-07-15T14:10:38.218Z,28.00
2018-07-15T14:13:07.513Z,28.09
2018-07-15T14:15:37.249Z,28.25
2018-07-15T14:18:06.529Z,28.44
2018-07-15T14:20:35.427Z,28.60
2018-07-15T14:23:04.026Z,28.80
2018-07-15T14:25:32.821Z,28.57
2018-07-15T14:28:02.176Z,28.67
2018-07-15T14:30:30.800Z,28.64
2018-07-15T14:32:59.534Z,28.75
2018-07-15T14:35:28.056Z,28.71
2018-07-15T14:37:57.308Z,28.83
2018-07-15T14:40:25.933Z,29.02
2018-07-15T14:42:56.047Z,29.09
2018-07-15T14:45:25.117Z,29.25
2018-07-15T14:47:53.689Z,29.40
2018-07-15T14:50:22.376Z,29.28
2018-07-15T14:52:51.258Z,29.31
2018-07-15T14:55:19.753Z,29.49
2018-07-15T14:57:48.447Z,29.57
2018-07-15T15:00:17.881Z,29.71
2018-07-15T15:02:46.488Z,29.71
2018-07-15T15:05:15.118Z,29.65
2018-07-15T15:07:43.775Z,29.67
2018-07-15T15:10:12.444Z,29.66
2018-07-15T15:12:41.158Z,29.61
2018-07-15T15:15:09.810Z,29.76
2018-07-15T15:17:38.516Z,30.00
2018-07-15T15:20:07.686Z,30.09
2018-07-15T15:22:37.313Z,30.00
2018-07-15T15:25:05.978Z,30.21
2018-07-15T15:27:35.242Z,30.31
2018-07-15T15:30:04.247Z,30.80
2018-07-15T15:32:33.137Z,31.14
2018-07-15T15:35:01.683Z,31.46
2018-07-15T15:37:30.223Z,31.84
2018-07-15T15:39:58.827Z,31.57
2018-07-15T15:42:27.516Z,31.04
2018-07-15T15:44:56.099Z,30.99
2018-07-15T15:47:24.737Z,30.99
2018-07-15T15:49:54.055Z,31.11
2018-07-15T15:52:25.202Z,31.19
2018-07-15T15:54:54.721Z,31.28
2018-07-15T15:57:23.383Z,31.33
2018-07-15T15:59:51.892Z,31.36
2018-07-15T16:02:20.453Z,31.34
2018-07-15T16:04:49.977Z,31.10
2018-07-15T16:07:18.568Z,31.32
2018-07-15T16:09:47.133Z,31.31
2018-07-15T16:12:15.769Z,31.43
2018-07-15T16:14:44.608Z,31.51
2018-07-15T16:17:13.223Z,31.58
2018-07-15T16:19:42.830Z,31.61
2018-07-15T16:22:12.323Z,31.79
2018-07-15T16:24:40.998Z,31.89
2018-07-15T16:27:10.095Z,31.91
2018-07-15T16:29:39.227Z,32.02
2018-07-15T16:32:08.009Z,31.99
2018-07-15T16:34:36.660Z,32.07
2018-07-15T16:37:06.171Z,31.90
2018-07-15T16:39:35.879Z,32.05
2018-07-15T16:42:05.698Z,32.10
2018-07-15T16:44:36.554Z,32.12
2018-07-15T16:47:05.576Z,31.81
2018-07-15T16:49:34.543Z,31.68
2018-07-15T16:52:03.149Z,31.30
2018-07-15T16:54:31.942Z,30.98
2018-07-15T16:57:01.829Z,30.52
2018-07-15T16:59:30.577Z,30.26
2018-07-15T17:02:00.124Z,30.01
2018-07-15T17:04:28.996Z,29.84
2018-07-15T17:06:57.684Z,29.78
2018-07-15T17:09:26.339Z,29.67
2018-07-15T17:11:55.176Z,29.41
2018-07-15T17:14:24.648Z,29.39
2018-07-15T17:16:53.295Z,29.35
2018-07-15T17:19:23.011Z,29.16
2018-07-15T17:21:51.692Z,29.06
2018-07-15T17:24:20.775Z,28.80
2018-07-15T17:26:49.569Z,28.60
2018-07-15T17:29:19.323Z,28.50
2018-07-15T17:31:48.086Z,28.29
2018-07-15T17:34:16.742Z,28.00
2018-07-15T17:36:46.141Z,27.89
2018-07-15T17:39:15.707Z,27.69
2018-07-15T17:41:45.679Z,27.51
2018-07-15T17:44:14.510Z,27.24
2018-07-15T17:46:43.517Z,27.14
2018-07-15T17:49:12.636Z,26.99
2018-07-15T17:51:42.032Z,26.74
2018-07-15T17:54:11.899Z,26.54
2018-07-15T17:56:40.690Z,26.40
2018-07-15T17:59:10.464Z,26.23
2018-07-15T18:01:39.137Z,26.04
2018-07-15T18:04:08.123Z,25.91
2018-07-15T18:06:36.793Z,25.84
2018-07-15T18:09:06.368Z,25.77
2018-07-15T18:11:38.099Z,25.67
2018-07-15T18:14:07.040Z,25.63
2018-07-15T18:16:37.078Z,25.57
2018-07-15T18:19:06.541Z,25.50
2018-07-15T18:21:35.194Z,25.44
2018-07-15T18:24:03.930Z,25.37
2018-07-15T18:26:33.365Z,25.33
2018-07-15T18:29:02.298Z,25.25
2018-07-15T18:31:31.049Z,25.17
2018-07-15T18:33:59.845Z,25.09
2018-07-15T18:36:28.798Z,25.05
2018-07-15T18:38:58.092Z,24.90
2018-07-15T18:41:26.597Z,24.90
2018-07-15T18:43:55.365Z,24.86
2018-07-15T18:46:23.911Z,24.81
2018-07-15T18:48:52.518Z,24.78
2018-07-15T18:51:21.884Z,24.75
2018-07-15T18:53:50.728Z,24.69
2018-07-15T18:56:20.319Z,24.65
2018-07-15T18:58:48.876Z,24.60
2018-07-15T19:01:17.416Z,24.50
2018-07-15T19:03:47.952Z,24.45
2018-07-15T19:06:16.831Z,24.41
2018-07-15T19:08:50.194Z,24.38
2018-07-15T19:11:19.457Z,24.36
2018-07-15T19:13:48.457Z,24.28
2018-07-15T19:16:17.921Z,24.24
2018-07-15T19:18:48.062Z,24.19
2018-07-15T19:21:17.060Z,24.13
2018-07-15T19:23:46.190Z,24.08
2018-07-15T19:26:14.852Z,24.05
2018-07-15T19:28:43.918Z,24.00
2018-07-15T19:31:13.339Z,23.95
2018-07-15T19:33:42.651Z,23.91
2018-07-15T19:36:11.655Z,23.89
2018-07-15T19:38:40.600Z,23.84
2018-07-15T19:41:09.317Z,23.83
2018-07-15T19:43:38.370Z,23.79
2018-07-15T19:46:07.105Z,23.74
2018-07-15T19:48:35.686Z,23.69
2018-07-15T19:51:04.270Z,23.63
2018-07-15T19:53:34.125Z,23.57
2018-07-15T19:56:04.128Z,23.55
2018-07-15T19:58:34.264Z,23.48
2018-07-15T20:01:03.080Z,23.41
2018-07-15T20:03:31.682Z,23.36
2018-07-15T20:06:00.806Z,23.28
2018-07-15T20:08:29.761Z,23.25
2018-07-15T20:10:58.485Z,23.21
2018-07-15T20:13:27.696Z,23.17
2018-07-15T20:15:56.262Z,23.13
2018-07-15T20:18:24.819Z,23.07
2018-07-15T20:20:54.436Z,23.00
2018-07-15T20:23:23.220Z,22.95
2018-07-15T20:25:52.077Z,22.89
2018-07-15T20:28:20.677Z,22.82
2018-07-15T20:30:50.006Z,22.77
2018-07-15T20:33:18.539Z,22.74
2018-07-15T20:35:48.016Z,22.69
2018-07-15T20:38:16.760Z,22.66
2018-07-15T20:40:46.063Z,22.62
2018-07-15T20:44:44.128Z,22.63
2018-07-15T20:47:12.717Z,22.54
2018-07-15T20:49:41.541Z,22.47
2018-07-15T20:52:10.801Z,22.44
2018-07-15T20:54:40.026Z,22.44
2018-07-15T20:57:11.491Z,22.38
2018-07-15T20:59:40.265Z,22.30
2018-07-15T21:02:10.668Z,22.23
2018-07-15T21:04:40.454Z,22.17
2018-07-15T21:07:09.067Z,22.16
2018-07-15T21:09:37.589Z,22.10
2018-07-15T21:12:07.115Z,22.04
2018-07-15T21:14:36.529Z,22.00
2018-07-15T21:17:05.312Z,21.97
2018-07-15T21:19:34.078Z,21.94
2018-07-15T21:22:03.138Z,21.86
2018-07-15T21:24:32.529Z,21.82
2018-07-15T21:27:01.166Z,21.79
2018-07-15T21:29:29.735Z,21.78
2018-07-15T21:32:00.291Z,21.75
2018-07-15T21:34:29.698Z,21.69
2018-07-15T21:36:59.232Z,21.66
2018-07-15T21:39:28.174Z,21.56
2018-07-15T21:41:56.660Z,21.53
2018-07-15T21:44:26.379Z,21.51
2018-07-15T21:46:55.869Z,21.46
2018-07-15T21:49:25.209Z,21.46
2018-07-15T21:51:54.080Z,21.44
2018-07-15T21:54:23.676Z,21.42
2018-07-15T21:56:52.112Z,21.39
2018-07-15T21:59:20.657Z,21.38
2018-07-15T22:01:49.390Z,21.36
2018-07-15T22:04:17.988Z,21.33
2018-07-15T22:06:57.924Z,21.32
2018-07-15T22:09:48.695Z,21.30
2018-07-15T22:12:17.279Z,21.27
2018-07-15T22:14:46.549Z,21.26
2018-07-15T22:17:16.675Z,21.24
2018-07-15T22:19:45.952Z,21.20
2018-07-15T22:22:15.856Z,21.16
2018-07-15T22:24:44.448Z,21.14
2018-07-15T22:27:14.074Z,21.09
2018-07-15T22:29:42.795Z,21.09
2018-07-15T22:32:12.561Z,21.08
2018-07-15T22:34:41.416Z,21.05
2018-07-15T22:37:12.918Z,21.01
2018-07-15T22:39:42.625Z,20.99
2018-07-15T22:42:11.368Z,20.97
2018-07-15T22:44:40.688Z,20.94
2018-07-15T22:47:10.186Z,20.90
2018-07-15T22:49:38.748Z,20.86
2018-07-15T22:52:08.357Z,20.85
2018-07-15T22:54:39.413Z,20.83
2018-07-15T22:57:10.397Z,20.81
2018-07-15T22:59:40.553Z,20.77
2018-07-15T23:02:10.594Z,20.76
2018-07-15T23:06:53.382Z,20.76
2018-07-15T23:09:21.989Z,20.70
2018-07-15T23:11:50.521Z,20.67
2018-07-15T23:14:19.098Z,20.62
2018-07-15T23:16:47.551Z,20.67
2018-07-15T23:19:16.081Z,20.64
2018-07-15T23:21:44.908Z,20.62
2018-07-15T23:24:14.087Z,20.60
2018-07-15T23:26:43.038Z,20.59
2018-07-15T23:29:11.562Z,20.56
2018-07-15T23:31:41.797Z,20.55
2018-07-15T23:34:10.460Z,20.51
2018-07-15T23:36:40.855Z,20.46
2018-07-15T23:39:09.377Z,20.44
2018-07-15T23:41:38.561Z,20.39
2018-07-15T23:44:08.003Z,20.36
2018-07-15T23:46:37.552Z,20.33
2018-07-15T23:49:07.541Z,20.30
2018-07-15T23:51:36.298Z,20.27
2018-07-15T23:54:05.048Z,20.23
2018-07-15T23:56:33.764Z,20.20
2018-07-15T23:59:03.795Z,20.16
